sensor_id;sensor_type;location;lat;lon;timestamp;temperature;humidity
80577;DHT22;69937;52.420;10.538;2024-03-22T00:01:56;8.00;73.60
80577;DHT22;69937;52.420;10.538;2024-03-22T00:06:57;8.00;73.70
80577;DHT22;69937;52.420;10.538;2024-03-22T00:11:57;8.00;73.80
80577;DHT22;69937;52.420;10.538;2024-03-22T00:16:58;8.00;73.60
80577;DHT22;69937;52.420;10.538;2024-03-22T00:21:59;8.00;73.70
80577;DHT22;69937;52.420;10.538;2024-03-22T00:26:59;8.00;73.70
80577;DHT22;69937;52.420;10.538;2024-03-22T00:32:00;8.00;73.80
80577;DHT22;69937;52.420;10.538;2024-03-22T00:37:01;8.00;73.80
80577;DHT22;69937;52.420;10.538;2024-03-22T00:42:01;8.00;73.80
80577;DHT22;69937;52.420;10.538;2024-03-22T00:47:02;8.10;73.90
80577;DHT22;69937;52.420;10.538;2024-03-22T00:52:03;8.10;73.70
80577;DHT22;69937;52.420;10.538;2024-03-22T00:57:04;8.10;73.80
80577;DHT22;69937;52.420;10.538;2024-03-22T01:02:05;8.10;73.90
80577;DHT22;69937;52.420;10.538;2024-03-22T01:07:05;8.10;74.00
80577;DHT22;69937;52.420;10.538;2024-03-22T01:12:06;8.10;74.10
80577;DHT22;69937;52.420;10.538;2024-03-22T01:17:06;8.10;74.10
80577;DHT22;69937;52.420;10.538;2024-03-22T01:22:07;8.10;74.10
80577;DHT22;69937;52.420;10.538;2024-03-22T01:27:08;8.20;74.20
80577;DHT22;69937;52.420;10.538;2024-03-22T01:32:08;8.20;74.40
80577;DHT22;69937;52.420;10.538;2024-03-22T01:37:09;8.10;74.40
80577;DHT22;69937;52.420;10.538;2024-03-22T01:42:09;8.10;74.60
80577;DHT22;69937;52.420;10.538;2024-03-22T01:47:10;8.20;74.70
80577;DHT22;69937;52.420;10.538;2024-03-22T01:52:11;8.20;74.70
80577;DHT22;69937;52.420;10.538;2024-03-22T01:57:12;8.20;74.60
80577;DHT22;69937;52.420;10.538;2024-03-22T02:02:13;8.20;74.60
80577;DHT22;69937;52.420;10.538;2024-03-22T02:07:13;8.20;74.70
80577;DHT22;69937;52.420;10.538;2024-03-22T02:12:14;8.20;74.90
80577;DHT22;69937;52.420;10.538;2024-03-22T02:17:16;8.30;75.00
80577;DHT22;69937;52.420;10.538;2024-03-22T02:22:16;8.20;75.10
80577;DHT22;69937;52.420;10.538;2024-03-22T02:27:17;8.30;75.00
80577;DHT22;69937;52.420;10.538;2024-03-22T02:32:18;8.30;75.10
80577;DHT22;69937;52.420;10.538;2024-03-22T02:37:18;8.30;75.00
80577;DHT22;69937;52.420;10.538;2024-03-22T02:42:19;8.30;75.00
80577;DHT22;69937;52.420;10.538;2024-03-22T02:47:19;8.40;75.00
80577;DHT22;69937;52.420;10.538;2024-03-22T02:52:20;8.40;74.80
80577;DHT22;69937;52.420;10.538;2024-03-22T02:57:21;8.40;74.70
80577;DHT22;69937;52.420;10.538;2024-03-22T03:02:21;8.50;74.70
80577;DHT22;69937;52.420;10.538;2024-03-22T03:07:22;8.50;74.50
80577;DHT22;69937;52.420;10.538;2024-03-22T03:12:23;8.50;74.50
80577;DHT22;69937;52.420;10.538;2024-03-22T03:17:23;8.50;74.40
80577;DHT22;69937;52.420;10.538;2024-03-22T03:22:24;8.50;74.40
80577;DHT22;69937;52.420;10.538;2024-03-22T03:27:24;8.60;74.40
80577;DHT22;69937;52.420;10.538;2024-03-22T03:32:26;8.60;74.30
80577;DHT22;69937;52.420;10.538;2024-03-22T03:37:26;8.60;74.20
80577;DHT22;69937;52.420;10.538;2024-03-22T03:42:27;8.60;74.00
80577;DHT22;69937;52.420;10.538;2024-03-22T03:47:28;8.60;74.10
80577;DHT22;69937;52.420;10.538;2024-03-22T03:52:28;8.60;74.20
80577;DHT22;69937;52.420;10.538;2024-03-22T03:57:29;8.60;74.20
80577;DHT22;69937;52.420;10.538;2024-03-22T04:02:29;8.50;74.20
80577;DHT22;69937;52.420;10.538;2024-03-22T04:07:30;8.50;74.30
80577;DHT22;69937;52.420;10.538;2024-03-22T04:12:30;8.40;74.40
80577;DHT22;69937;52.420;10.538;2024-03-22T04:17:31;8.50;74.40
80577;DHT22;69937;52.420;10.538;2024-03-22T04:22:32;8.50;74.40
80577;DHT22;69937;52.420;10.538;2024-03-22T04:27:36;8.40;74.20
80577;DHT22;69937;52.420;10.538;2024-03-22T04:32:36;8.40;74.30
80577;DHT22;69937;52.420;10.538;2024-03-22T04:37:37;8.40;74.40
80577;DHT22;69937;52.420;10.538;2024-03-22T04:42:37;8.40;74.40
80577;DHT22;69937;52.420;10.538;2024-03-22T04:47:38;8.40;74.40
80577;DHT22;69937;52.420;10.538;2024-03-22T04:52:41;8.50;74.50
80577;DHT22;69937;52.420;10.538;2024-03-22T04:57:41;8.50;74.50
80577;DHT22;69937;52.420;10.538;2024-03-22T05:02:42;8.50;74.40
80577;DHT22;69937;52.420;10.538;2024-03-22T05:07:42;8.60;74.40
80577;DHT22;69937;52.420;10.538;2024-03-22T05:12:43;8.60;74.10
80577;DHT22;69937;52.420;10.538;2024-03-22T05:17:44;8.60;74.10
80577;DHT22;69937;52.420;10.538;2024-03-22T05:22:44;8.60;74.00
80577;DHT22;69937;52.420;10.538;2024-03-22T05:27:45;8.60;73.80
80577;DHT22;69937;52.420;10.538;2024-03-22T05:32:46;8.60;73.80
80577;DHT22;69937;52.420;10.538;2024-03-22T05:37:46;8.80;73.80
80577;DHT22;69937;52.420;10.538;2024-03-22T05:42:48;8.80;73.70
80577;DHT22;69937;52.420;10.538;2024-03-22T05:47:49;8.80;73.60
80577;DHT22;69937;52.420;10.538;2024-03-22T05:52:49;8.80;73.60
80577;DHT22;69937;52.420;10.538;2024-03-22T05:57:50;8.90;73.50
80577;DHT22;69937;52.420;10.538;2024-03-22T06:02:51;8.90;73.40
80577;DHT22;69937;52.420;10.538;2024-03-22T06:07:51;9.00;73.30
80577;DHT22;69937;52.420;10.538;2024-03-22T06:12:52;9.00;73.30
80577;DHT22;69937;52.420;10.538;2024-03-22T06:17:52;9.00;73.20
80577;DHT22;69937;52.420;10.538;2024-03-22T06:22:53;9.00;73.20
80577;DHT22;69937;52.420;10.538;2024-03-22T06:27:54;9.00;73.00
80577;DHT22;69937;52.420;10.538;2024-03-22T06:32:54;9.10;73.00
80577;DHT22;69937;52.420;10.538;2024-03-22T06:37:55;9.20;72.90
80577;DHT22;69937;52.420;10.538;2024-03-22T06:42:56;9.20;72.70
80577;DHT22;69937;52.420;10.538;2024-03-22T06:47:57;9.20;72.80
80577;DHT22;69937;52.420;10.538;2024-03-22T06:52:57;9.40;72.60
80577;DHT22;69937;52.420;10.538;2024-03-22T06:57:58;9.40;72.80
80577;DHT22;69937;52.420;10.538;2024-03-22T07:02:58;9.40;72.70
80577;DHT22;69937;52.420;10.538;2024-03-22T07:08:02;9.40;72.90
80577;DHT22;69937;52.420;10.538;2024-03-22T07:13:03;9.50;72.80
80577;DHT22;69937;52.420;10.538;2024-03-22T07:18:04;9.50;72.90
80577;DHT22;69937;52.420;10.538;2024-03-22T07:23:04;9.60;72.70
80577;DHT22;69937;52.420;10.538;2024-03-22T07:28:05;9.70;72.70
80577;DHT22;69937;52.420;10.538;2024-03-22T07:33:06;9.70;72.70
80577;DHT22;69937;52.420;10.538;2024-03-22T07:38:07;9.80;72.50
80577;DHT22;69937;52.420;10.538;2024-03-22T07:43:07;10.00;72.40
80577;DHT22;69937;52.420;10.538;2024-03-22T07:48:08;10.10;72.30
80577;DHT22;69937;52.420;10.538;2024-03-22T07:53:09;10.20;71.80
80577;DHT22;69937;52.420;10.538;2024-03-22T07:58:09;10.30;71.80
80577;DHT22;69937;52.420;10.538;2024-03-22T08:03:14;10.40;71.40
80577;DHT22;69937;52.420;10.538;2024-03-22T08:08:15;10.60;71.10
80577;DHT22;69937;52.420;10.538;2024-03-22T08:13:16;10.70;70.90
80577;DHT22;69937;52.420;10.538;2024-03-22T08:18:16;10.80;70.40
80577;DHT22;69937;52.420;10.538;2024-03-22T08:23:17;10.90;70.10
80577;DHT22;69937;52.420;10.538;2024-03-22T08:28:20;10.90;69.90
80577;DHT22;69937;52.420;10.538;2024-03-22T08:33:21;10.90;69.80
80577;DHT22;69937;52.420;10.538;2024-03-22T08:38:21;11.00;69.70
80577;DHT22;69937;52.420;10.538;2024-03-22T08:43:24;11.10;69.30
80577;DHT22;69937;52.420;10.538;2024-03-22T08:48:26;11.10;69.30
80577;DHT22;69937;52.420;10.538;2024-03-22T08:53:26;11.10;69.10
80577;DHT22;69937;52.420;10.538;2024-03-22T08:58:27;11.30;69.20
80577;DHT22;69937;52.420;10.538;2024-03-22T09:03:27;11.40;68.90
80577;DHT22;69937;52.420;10.538;2024-03-22T09:08:28;11.50;68.80
80577;DHT22;69937;52.420;10.538;2024-03-22T09:13:29;11.60;68.70
80577;DHT22;69937;52.420;10.538;2024-03-22T09:18:30;11.70;68.50
80577;DHT22;69937;52.420;10.538;2024-03-22T09:23:31;11.80;68.50
80577;DHT22;69937;52.420;10.538;2024-03-22T09:28:32;11.90;68.20
80577;DHT22;69937;52.420;10.538;2024-03-22T09:33:34;11.90;68.10
80577;DHT22;69937;52.420;10.538;2024-03-22T09:38:34;11.90;68.00
80577;DHT22;69937;52.420;10.538;2024-03-22T09:43:35;11.90;68.20
80577;DHT22;69937;52.420;10.538;2024-03-22T09:48:36;11.90;68.20
80577;DHT22;69937;52.420;10.538;2024-03-22T09:53:37;11.90;68.70
80577;DHT22;69937;52.420;10.538;2024-03-22T09:58:39;12.00;69.00
80577;DHT22;69937;52.420;10.538;2024-03-22T10:03:40;12.00;69.20
80577;DHT22;69937;52.420;10.538;2024-03-22T10:08:40;12.00;69.80
80577;DHT22;69937;52.420;10.538;2024-03-22T10:13:41;11.90;69.50
80577;DHT22;69937;52.420;10.538;2024-03-22T10:18:41;11.90;69.20
80577;DHT22;69937;52.420;10.538;2024-03-22T10:23:42;12.00;68.90
80577;DHT22;69937;52.420;10.538;2024-03-22T10:28:45;12.10;68.40
80577;DHT22;69937;52.420;10.538;2024-03-22T10:33:46;12.30;68.00
80577;DHT22;69937;52.420;10.538;2024-03-22T10:38:49;12.50;67.20
80577;DHT22;69937;52.420;10.538;2024-03-22T10:43:52;12.50;66.90
80577;DHT22;69937;52.420;10.538;2024-03-22T10:48:55;12.60;66.20
80577;DHT22;69937;52.420;10.538;2024-03-22T10:53:56;12.70;65.80
80577;DHT22;69937;52.420;10.538;2024-03-22T10:59:03;12.70;65.50
80577;DHT22;69937;52.420;10.538;2024-03-22T11:04:04;12.70;65.30
80577;DHT22;69937;52.420;10.538;2024-03-22T11:09:09;12.80;65.00
80577;DHT22;69937;52.420;10.538;2024-03-22T11:14:11;13.00;64.90
80577;DHT22;69937;52.420;10.538;2024-03-22T11:19:11;13.00;64.60
80577;DHT22;69937;52.420;10.538;2024-03-22T11:24:12;13.00;64.20
80577;DHT22;69937;52.420;10.538;2024-03-22T11:29:14;13.00;63.60
80577;DHT22;69937;52.420;10.538;2024-03-22T11:34:15;13.10;64.90
80577;DHT22;69937;52.420;10.538;2024-03-22T11:39:15;13.00;66.10
80577;DHT22;69937;52.420;10.538;2024-03-22T11:44:16;13.00;66.00
80577;DHT22;69937;52.420;10.538;2024-03-22T11:49:18;13.00;65.70
80577;DHT22;69937;52.420;10.538;2024-03-22T11:54:19;13.20;64.30
80577;DHT22;69937;52.420;10.538;2024-03-22T11:59:21;13.60;62.70
80577;DHT22;69937;52.420;10.538;2024-03-22T12:04:22;13.90;62.50
80577;DHT22;69937;52.420;10.538;2024-03-22T12:09:23;13.90;61.60
80577;DHT22;69937;52.420;10.538;2024-03-22T12:14:23;13.90;61.30
80577;DHT22;69937;52.420;10.538;2024-03-22T12:19:24;13.90;61.20
80577;DHT22;69937;52.420;10.538;2024-03-22T12:24:25;13.90;61.20
80577;DHT22;69937;52.420;10.538;2024-03-22T12:29:27;13.70;61.30
80577;DHT22;69937;52.420;10.538;2024-03-22T12:34:28;13.70;61.60
80577;DHT22;69937;52.420;10.538;2024-03-22T12:39:33;13.60;61.80
80577;DHT22;69937;52.420;10.538;2024-03-22T12:44:34;13.50;61.90
80577;DHT22;69937;52.420;10.538;2024-03-22T12:49:34;13.50;62.20
80577;DHT22;69937;52.420;10.538;2024-03-22T12:54:35;13.40;62.50
80577;DHT22;69937;52.420;10.538;2024-03-22T12:59:35;13.50;63.00
80577;DHT22;69937;52.420;10.538;2024-03-22T13:04:36;13.40;63.10
80577;DHT22;69937;52.420;10.538;2024-03-22T13:09:37;13.30;63.40
80577;DHT22;69937;52.420;10.538;2024-03-22T13:14:37;13.30;63.60
80577;DHT22;69937;52.420;10.538;2024-03-22T13:19:38;13.30;63.80
80577;DHT22;69937;52.420;10.538;2024-03-22T13:24:39;13.30;63.70
80577;DHT22;69937;52.420;10.538;2024-03-22T13:29:40;13.20;64.10
80577;DHT22;69937;52.420;10.538;2024-03-22T13:34:40;13.20;64.30
80577;DHT22;69937;52.420;10.538;2024-03-22T13:39:42;13.10;64.50
80577;DHT22;69937;52.420;10.538;2024-03-22T13:44:43;13.10;64.40
80577;DHT22;69937;52.420;10.538;2024-03-22T13:49:44;13.00;65.10
80577;DHT22;69937;52.420;10.538;2024-03-22T13:54:45;13.00;65.00
80577;DHT22;69937;52.420;10.538;2024-03-22T13:59:46;13.00;65.20
80577;DHT22;69937;52.420;10.538;2024-03-22T14:04:47;12.90;65.30
80577;DHT22;69937;52.420;10.538;2024-03-22T14:09:48;12.80;65.70
80577;DHT22;69937;52.420;10.538;2024-03-22T14:14:48;12.80;66.20
80577;DHT22;69937;52.420;10.538;2024-03-22T14:19:49;12.80;66.60
80577;DHT22;69937;52.420;10.538;2024-03-22T14:24:49;12.70;67.00
80577;DHT22;69937;52.420;10.538;2024-03-22T14:29:50;12.70;67.40
80577;DHT22;69937;52.420;10.538;2024-03-22T14:34:52;12.50;67.50
80577;DHT22;69937;52.420;10.538;2024-03-22T14:39:53;12.50;67.90
80577;DHT22;69937;52.420;10.538;2024-03-22T14:44:53;12.40;68.20
80577;DHT22;69937;52.420;10.538;2024-03-22T14:49:56;12.20;69.10
80577;DHT22;69937;52.420;10.538;2024-03-22T14:54:56;12.10;68.90
80577;DHT22;69937;52.420;10.538;2024-03-22T14:59:57;12.00;69.10
80577;DHT22;69937;52.420;10.538;2024-03-22T15:04:58;11.90;69.60
80577;DHT22;69937;52.420;10.538;2024-03-22T15:09:58;11.90;70.00
80577;DHT22;69937;52.420;10.538;2024-03-22T15:14:59;11.80;70.60
80577;DHT22;69937;52.420;10.538;2024-03-22T15:20:00;11.70;71.40
80577;DHT22;69937;52.420;10.538;2024-03-22T15:25:01;11.50;73.00
80577;DHT22;69937;52.420;10.538;2024-03-22T15:30:01;11.50;73.70
80577;DHT22;69937;52.420;10.538;2024-03-22T15:35:02;11.40;74.20
80577;DHT22;69937;52.420;10.538;2024-03-22T15:40:07;11.30;75.10
80577;DHT22;69937;52.420;10.538;2024-03-22T15:45:09;11.10;75.90
80577;DHT22;69937;52.420;10.538;2024-03-22T15:50:10;11.00;76.70
80577;DHT22;69937;52.420;10.538;2024-03-22T15:55:11;10.90;76.80
80577;DHT22;69937;52.420;10.538;2024-03-22T16:00:12;10.90;77.00
80577;DHT22;69937;52.420;10.538;2024-03-22T16:05:12;10.80;77.40
80577;DHT22;69937;52.420;10.538;2024-03-22T16:10:13;10.80;77.80
80577;DHT22;69937;52.420;10.538;2024-03-22T16:15:13;10.70;78.40
80577;DHT22;69937;52.420;10.538;2024-03-22T16:20:14;10.60;78.70
80577;DHT22;69937;52.420;10.538;2024-03-22T16:25:15;10.60;78.90
80577;DHT22;69937;52.420;10.538;2024-03-22T16:30:15;10.60;79.30
80577;DHT22;69937;52.420;10.538;2024-03-22T16:35:17;10.50;79.50
80577;DHT22;69937;52.420;10.538;2024-03-22T16:40:19;10.50;79.50
80577;DHT22;69937;52.420;10.538;2024-03-22T16:45:20;10.50;79.40
80577;DHT22;69937;52.420;10.538;2024-03-22T16:50:20;10.50;79.50
80577;DHT22;69937;52.420;10.538;2024-03-22T16:55:21;10.40;79.90
80577;DHT22;69937;52.420;10.538;2024-03-22T17:00:24;10.40;79.90
80577;DHT22;69937;52.420;10.538;2024-03-22T17:05:25;10.40;80.10
80577;DHT22;69937;52.420;10.538;2024-03-22T17:10:26;10.30;80.20
80577;DHT22;69937;52.420;10.538;2024-03-22T17:15:26;10.30;80.20
80577;DHT22;69937;52.420;10.538;2024-03-22T17:20:27;10.20;80.70
80577;DHT22;69937;52.420;10.538;2024-03-22T17:25:29;10.20;80.80
80577;DHT22;69937;52.420;10.538;2024-03-22T17:30:29;10.20;81.10
80577;DHT22;69937;52.420;10.538;2024-03-22T17:35:30;10.20;81.20
80577;DHT22;69937;52.420;10.538;2024-03-22T17:40:31;10.20;81.60
80577;DHT22;69937;52.420;10.538;2024-03-22T17:45:32;10.10;81.40
80577;DHT22;69937;52.420;10.538;2024-03-22T17:50:33;10.10;81.50
80577;DHT22;69937;52.420;10.538;2024-03-22T17:55:33;10.10;81.70
80577;DHT22;69937;52.420;10.538;2024-03-22T18:00:34;10.10;81.80
80577;DHT22;69937;52.420;10.538;2024-03-22T18:05:34;10.00;81.80
80577;DHT22;69937;52.420;10.538;2024-03-22T18:10:35;10.00;82.20
80577;DHT22;69937;52.420;10.538;2024-03-22T18:15:39;10.00;82.50
80577;DHT22;69937;52.420;10.538;2024-03-22T18:20:40;10.00;82.40
80577;DHT22;69937;52.420;10.538;2024-03-22T18:25:40;10.00;82.50
80577;DHT22;69937;52.420;10.538;2024-03-22T18:30:41;10.00;82.30
80577;DHT22;69937;52.420;10.538;2024-03-22T18:35:43;10.00;82.50
80577;DHT22;69937;52.420;10.538;2024-03-22T18:40:43;9.80;82.70
80577;DHT22;69937;52.420;10.538;2024-03-22T18:45:44;9.80;82.50
80577;DHT22;69937;52.420;10.538;2024-03-22T18:50:45;9.90;82.60
80577;DHT22;69937;52.420;10.538;2024-03-22T18:55:47;9.80;82.40
80577;DHT22;69937;52.420;10.538;2024-03-22T19:00:48;9.80;82.40
80577;DHT22;69937;52.420;10.538;2024-03-22T19:05:49;9.80;82.50
80577;DHT22;69937;52.420;10.538;2024-03-22T19:10:50;9.80;82.70
80577;DHT22;69937;52.420;10.538;2024-03-22T19:15:55;9.70;82.80
80577;DHT22;69937;52.420;10.538;2024-03-22T19:20:55;9.50;79.80
80577;DHT22;69937;52.420;10.538;2024-03-22T19:25:56;9.30;79.70
80577;DHT22;69937;52.420;10.538;2024-03-22T19:30:57;9.20;80.10
80577;DHT22;69937;52.420;10.538;2024-03-22T19:35:57;9.00;80.40
80577;DHT22;69937;52.420;10.538;2024-03-22T19:41:01;9.00;80.50
80577;DHT22;69937;52.420;10.538;2024-03-22T19:46:01;8.90;80.70
80577;DHT22;69937;52.420;10.538;2024-03-22T19:51:03;8.80;80.50
80577;DHT22;69937;52.420;10.538;2024-03-22T19:56:07;8.80;80.20
80577;DHT22;69937;52.420;10.538;2024-03-22T20:01:07;8.70;80.50
80577;DHT22;69937;52.420;10.538;2024-03-22T20:06:08;8.60;80.70
80577;DHT22;69937;52.420;10.538;2024-03-22T20:11:09;8.60;80.70
80577;DHT22;69937;52.420;10.538;2024-03-22T20:16:10;8.60;80.80
80577;DHT22;69937;52.420;10.538;2024-03-22T20:21:10;8.50;80.60
80577;DHT22;69937;52.420;10.538;2024-03-22T20:26:11;8.60;80.50
80577;DHT22;69937;52.420;10.538;2024-03-22T20:31:11;8.50;80.50
80577;DHT22;69937;52.420;10.538;2024-03-22T20:36:14;8.50;80.80
